Lakeville, Connecticut
Current Conditions -  °F | °C
As of 6:53 AM on Friday 28 Nov 2014 (Local Time) from KPOU Reporting Station
Broken Clouds Broken Clouds  
Wind Chill: 20°   Ceiling: 10000
Heat Index: 20°   Visibility: 7mi
Dew Point: 17°   Wind: 0mph
Humidity: 89%   Direction: NA
Pressure: 30.12"   Gusts: NA
Location:  41.96°N, 73.44°W
Report Text: KPOU 281153Z 00000KT 7SM SCT043 BKN100 M07/M08 A3012 RMK AO2 SLP198 70001 I1000 I6001 T10671083 11033 21067 53018
Loading
Personal Weather Stations






























Interactive Weather Map New forecast layout! Learn more

10-Day Weather Forecast

Advertisements
Track Severe Weather on mobile